Terminal Aerodrome Forecast
Issued by NWS

Home | Current Version | Previous Version | Graphics & Text | Print | Product List | Glossary On
Versions: 1 2 3 4 5 6 7 8 9 10 11 12 13 14 15 16 17 18 19 20 21 22 23 24
000
FTUS43 KICT 250049 AAA
TAFRSL
TAF AMD
KRSL 250049Z 2501/2524 11013KT P6SM VCTS BKN040CB
      TEMPO 2501/2504 VRB25G50KT 2SM +TSRA OVC025CB
     FM250600 15016G23KT P6SM VCTS BKN020CB
     FM251600 17013KT P6SM BKN035=

USA.gov is the U.S. government's official web portal to all federal, state and local government web resources and services.